Sunday, October 21, 2018, 9:22 PM EDT
Back to Local

KACK, Nantucket Memorial Airport

Location: Nantucket, MA, United States Lat: 41.25
Local Time: 9:22 PM EDT ( 1:22 GMT) Lon: -70.067
Time Zone: US/Eastern Elev: 49 ft

Show me the last for .
Show Decoded

2018-10-21 20:53 METAR KACK 220053Z 33015G25KT 10SM FEW050 05/M05 A3000 RMK AO2 SLP159 T00501050
                 =
2018-10-21 19:53 METAR KACK 212353Z 32016G25KT 10SM OVC048 06/M05 A2997 RMK AO2 PK WND 34026/2302
                 SLP149 T00561050 10094 20056 51045 =
2018-10-21 18:53 METAR KACK 212253Z 33016G24KT 10SM BKN050 07/M04 A2994 RMK AO2 SLP138 T00671039
                 =
2018-10-21 17:53 METAR KACK 212153Z 32012G22KT 10SM OVC049 07/M02 A2988 RMK AO2 SLP119 T00721022
                 =
2018-10-21 16:53 METAR KACK 212053Z 32015G25KT 10SM OVC043 08/M01 A2984 RMK AO2 PK WND 35026/2006
                 SLP104 T00781006 53032 =
2018-10-21 15:53 METAR KACK 211953Z 34019G24KT 10SM BKN048 08/00 A2980 RMK AO2 SLP091 T00780000 =
2018-10-21 14:53 METAR KACK 211853Z 33019G27KT 10SM BKN040 09/01 A2977 RMK AO2 PK WND 33031/1754
                 SLP080 T00940011 =
2018-10-21 13:53 METAR KACK 211753Z 31018G30KT 10SM OVC030 07/02 A2974 RMK AO2 PK WND 31030/1747
                 RAE24 SLP072 P0003 60036 T00720022 10100 20067 51014 =
2018-10-21 13:50 METAR KACK 211750Z 32021G30KT 10SM OVC030 07/02 A2974 RMK AO2 PK WND 31030/1747
                 RAE24 P0003 =
2018-10-21 12:53 METAR KACK 211653Z 33018G28KT 5SM RA BKN025 BKN030 OVC037 07/04 A2972 RMK AO2 PK
                 WND 32036/1601 SLP062 P0006 T00720044 =
2018-10-21 12:15 METAR KACK 211615Z 34019G31KT 5SM -RA BR SCT021 BKN040 OVC047 07/05 A2971 RMK
                 AO2 PK WND 32036/1601 P0000 T00720050 =
2018-10-21 11:53 METAR KACK 211553Z 33024G36KT 4SM -RA SCT019 BKN024 OVC034 07/04 A2970 RMK AO2
                 PK WND 32036/1550 SLP058 P0010 T00720044 =
2018-10-21 10:53 METAR KACK 211453Z 35024G33KT 4SM RA BR SCT017 BKN024 OVC032 08/06 A2968 RMK AO2
                 PK WND 36037/1359 SLP051 P0007 60017 T00780056 53029 =
2018-10-21 09:53 METAR KACK 211353Z 35027G34KT 9SM -RA SCT023 OVC030 08/06 A2964 RMK AO2 PK WND
                 36035/1341 SLP038 P0007 T00830056 =
2018-10-21 08:53 METAR KACK 211253Z 35013KT 10SM -RA FEW022 FEW033 OVC044 10/08 A2961 RMK AO2
                 SLP028 P0003 T01000083 =
2018-10-21 07:53 METAR KACK 211153Z 35010KT 6SM -RA BR OVC050 10/08 A2960 RMK AO2 SLP022 P0006
                 60007 70020 T01000078 10111 20061 53019 =
2018-10-21 06:53 METAR KACK 211053Z 33008KT 10SM -RA BKN050 OVC070 11/09 A2957 RMK AO2 RAB46
                 SLP014 P0001 T01060089 =
2018-10-21 05:53 METAR KACK 210953Z 01006KT 10SM OVC100 10/08 A2955 RMK AO2 SLP006 T01000078 =
2018-10-21 04:53 METAR KACK 210853Z AUTO 36004KT 10SM CLR 08/07 A2954 RMK AO2 SLP002 T00780067
                 56007 =
2018-10-21 03:53 METAR KACK 210753Z AUTO 00000KT 10SM CLR 07/07 A2954 RMK AO2 SLP003 T00720067 =
2018-10-21 02:53 METAR KACK 210653Z AUTO 00000KT 10SM CLR 08/07 A2954 RMK AO2 SLP003 T00780072 =
2018-10-21 01:53 METAR KACK 210553Z AUTO 30003KT 10SM FEW060 09/09 A2956 RMK AO2 SLP010 60000
                 T00940089 10144 20089 58017 =
2018-10-21 00:53 METAR KACK 210453Z AUTO 31004KT 10SM FEW060 SCT080 11/09 A2958 RMK AO2
                 RAB0357E14 SLP017 P0000 T01110089 401670106 =
2018-10-21 00:03 METAR KACK 210403Z AUTO 31006KT 9SM -RA SCT029 BKN055 OVC070 12/09 A2960 RMK AO2
                 RAB0357 P0000 T01220089 =
2018-10-20 23:53 METAR KACK 210353Z AUTO 31007KT 10SM BKN029 OVC070 13/10 A2961 RMK AO2 SLP025
                 T01330100 =
2018-10-20 22:53 METAR KACK 210253Z AUTO 30004KT 10SM FEW024 FEW029 BKN080 13/11 A2961 RMK AO2
                 SLP027 T01280106 53003 =
2018-10-20 21:53 METAR KACK 210153Z AUTO 26007KT 10SM OVC075 14/11 A2960 RMK AO2 SLP024 T01390111
                 =

Support USWX by starting your Amazon purchase here.